sensor_id;sensor_type;location;lat;lon;timestamp;temperature;humidity
26336;DHT22;14047;50.936;4.654;2023-11-19T00:00:57;13.90;99.90
26336;DHT22;14047;50.936;4.654;2023-11-19T00:03:23;14.00;99.90
26336;DHT22;14047;50.936;4.654;2023-11-19T00:05:49;13.90;99.90
26336;DHT22;14047;50.936;4.654;2023-11-19T00:08:16;13.90;99.90
26336;DHT22;14047;50.936;4.654;2023-11-19T00:10:42;14.00;99.90
26336;DHT22;14047;50.936;4.654;2023-11-19T00:13:08;14.00;99.90
26336;DHT22;14047;50.936;4.654;2023-11-19T00:15:35;14.00;99.90
26336;DHT22;14047;50.936;4.654;2023-11-19T00:18:01;13.90;99.90
26336;DHT22;14047;50.936;4.654;2023-11-19T00:20:30;13.90;99.90
26336;DHT22;14047;50.936;4.654;2023-11-19T00:22:56;13.90;99.90
26336;DHT22;14047;50.936;4.654;2023-11-19T00:25:23;13.90;99.90
26336;DHT22;14047;50.936;4.654;2023-11-19T00:27:49;13.80;99.90
26336;DHT22;14047;50.936;4.654;2023-11-19T00:30:16;13.90;99.90
26336;DHT22;14047;50.936;4.654;2023-11-19T00:32:42;13.90;99.90
26336;DHT22;14047;50.936;4.654;2023-11-19T00:35:08;13.90;99.90
26336;DHT22;14047;50.936;4.654;2023-11-19T00:37:39;13.90;99.90
26336;DHT22;14047;50.936;4.654;2023-11-19T00:40:06;13.90;99.90
26336;DHT22;14047;50.936;4.654;2023-11-19T00:42:32;13.90;99.90
26336;DHT22;14047;50.936;4.654;2023-11-19T00:44:58;13.90;99.90
26336;DHT22;14047;50.936;4.654;2023-11-19T00:47:24;13.90;99.90
26336;DHT22;14047;50.936;4.654;2023-11-19T00:49:50;13.90;99.90
26336;DHT22;14047;50.936;4.654;2023-11-19T00:52:18;13.90;99.90
26336;DHT22;14047;50.936;4.654;2023-11-19T00:54:44;13.90;99.90
26336;DHT22;14047;50.936;4.654;2023-11-19T00:57:10;13.90;99.90
26336;DHT22;14047;50.936;4.654;2023-11-19T00:59:36;14.00;99.90
26336;DHT22;14047;50.936;4.654;2023-11-19T01:02:03;14.00;99.90
26336;DHT22;14047;50.936;4.654;2023-11-19T01:04:34;14.00;99.90
26336;DHT22;14047;50.936;4.654;2023-11-19T01:07:02;14.00;99.90
26336;DHT22;14047;50.936;4.654;2023-11-19T01:09:30;14.00;99.90
26336;DHT22;14047;50.936;4.654;2023-11-19T01:11:58;14.00;99.90
26336;DHT22;14047;50.936;4.654;2023-11-19T01:14:27;14.10;99.90
26336;DHT22;14047;50.936;4.654;2023-11-19T01:16:53;14.10;99.90
26336;DHT22;14047;50.936;4.654;2023-11-19T01:19:21;14.20;99.90
26336;DHT22;14047;50.936;4.654;2023-11-19T01:21:48;14.20;99.90
26336;DHT22;14047;50.936;4.654;2023-11-19T01:24:14;14.20;99.90
26336;DHT22;14047;50.936;4.654;2023-11-19T01:26:41;14.20;99.90
26336;DHT22;14047;50.936;4.654;2023-11-19T01:29:14;14.20;99.90
26336;DHT22;14047;50.936;4.654;2023-11-19T01:31:41;14.20;99.90
26336;DHT22;14047;50.936;4.654;2023-11-19T01:34:07;14.20;99.90
26336;DHT22;14047;50.936;4.654;2023-11-19T01:36:34;14.10;99.90
26336;DHT22;14047;50.936;4.654;2023-11-19T01:39:00;14.00;99.90
26336;DHT22;14047;50.936;4.654;2023-11-19T01:41:26;13.90;99.90
26336;DHT22;14047;50.936;4.654;2023-11-19T01:43:52;13.90;99.90
26336;DHT22;14047;50.936;4.654;2023-11-19T01:46:20;13.80;99.90
26336;DHT22;14047;50.936;4.654;2023-11-19T01:48:46;13.90;99.90
26336;DHT22;14047;50.936;4.654;2023-11-19T01:51:12;13.90;99.90
26336;DHT22;14047;50.936;4.654;2023-11-19T01:53:43;13.90;99.90
26336;DHT22;14047;50.936;4.654;2023-11-19T01:56:10;13.80;99.90
26336;DHT22;14047;50.936;4.654;2023-11-19T01:58:38;13.80;99.90
26336;DHT22;14047;50.936;4.654;2023-11-19T02:01:08;13.90;99.90
26336;DHT22;14047;50.936;4.654;2023-11-19T02:03:34;13.80;99.90
26336;DHT22;14047;50.936;4.654;2023-11-19T02:06:02;13.70;99.90
26336;DHT22;14047;50.936;4.654;2023-11-19T02:08:29;13.60;99.90
26336;DHT22;14047;50.936;4.654;2023-11-19T02:10:55;13.60;99.90
26336;DHT22;14047;50.936;4.654;2023-11-19T02:13:24;13.50;99.90
26336;DHT22;14047;50.936;4.654;2023-11-19T02:15:51;13.60;99.90
26336;DHT22;14047;50.936;4.654;2023-11-19T02:18:22;13.50;99.90
26336;DHT22;14047;50.936;4.654;2023-11-19T02:20:51;13.50;99.90
26336;DHT22;14047;50.936;4.654;2023-11-19T02:23:18;13.40;99.90
26336;DHT22;14047;50.936;4.654;2023-11-19T02:26:17;13.40;99.90
26336;DHT22;14047;50.936;4.654;2023-11-19T02:28:44;13.30;99.90
26336;DHT22;14047;50.936;4.654;2023-11-19T02:31:10;13.30;99.90
26336;DHT22;14047;50.936;4.654;2023-11-19T02:33:40;13.30;99.90
26336;DHT22;14047;50.936;4.654;2023-11-19T02:36:07;13.30;99.90
26336;DHT22;14047;50.936;4.654;2023-11-19T02:38:34;13.30;99.90
26336;DHT22;14047;50.936;4.654;2023-11-19T02:41:04;13.30;99.90
26336;DHT22;14047;50.936;4.654;2023-11-19T02:43:36;13.30;99.90
26336;DHT22;14047;50.936;4.654;2023-11-19T02:46:04;13.40;99.90
26336;DHT22;14047;50.936;4.654;2023-11-19T02:48:35;13.40;99.90
26336;DHT22;14047;50.936;4.654;2023-11-19T02:51:04;13.30;99.90
26336;DHT22;14047;50.936;4.654;2023-11-19T02:53:38;13.30;99.90
26336;DHT22;14047;50.936;4.654;2023-11-19T02:56:06;13.30;99.90
26336;DHT22;14047;50.936;4.654;2023-11-19T02:58:44;13.30;99.90
26336;DHT22;14047;50.936;4.654;2023-11-19T03:01:11;13.30;99.90
26336;DHT22;14047;50.936;4.654;2023-11-19T03:03:49;13.20;99.90
26336;DHT22;14047;50.936;4.654;2023-11-19T03:06:20;13.10;99.90
26336;DHT22;14047;50.936;4.654;2023-11-19T03:08:47;13.10;99.90
26336;DHT22;14047;50.936;4.654;2023-11-19T03:11:14;13.10;99.90
26336;DHT22;14047;50.936;4.654;2023-11-19T03:13:40;13.10;99.90
26336;DHT22;14047;50.936;4.654;2023-11-19T03:16:06;13.00;99.90
26336;DHT22;14047;50.936;4.654;2023-11-19T03:18:33;13.10;99.90
26336;DHT22;14047;50.936;4.654;2023-11-19T03:20:59;13.20;99.90
26336;DHT22;14047;50.936;4.654;2023-11-19T03:23:25;13.20;99.90
26336;DHT22;14047;50.936;4.654;2023-11-19T03:25:54;13.10;99.90
26336;DHT22;14047;50.936;4.654;2023-11-19T03:28:21;13.20;99.90
26336;DHT22;14047;50.936;4.654;2023-11-19T03:30:47;13.20;99.90
26336;DHT22;14047;50.936;4.654;2023-11-19T03:33:13;13.10;99.90
26336;DHT22;14047;50.936;4.654;2023-11-19T03:35:39;13.10;99.90
26336;DHT22;14047;50.936;4.654;2023-11-19T03:38:06;13.10;99.90
26336;DHT22;14047;50.936;4.654;2023-11-19T03:40:32;13.10;99.90
26336;DHT22;14047;50.936;4.654;2023-11-19T03:42:58;13.00;99.90
26336;DHT22;14047;50.936;4.654;2023-11-19T03:45:24;13.00;99.90
26336;DHT22;14047;50.936;4.654;2023-11-19T03:47:51;12.90;99.90
26336;DHT22;14047;50.936;4.654;2023-11-19T03:50:17;12.90;99.90
26336;DHT22;14047;50.936;4.654;2023-11-19T03:52:46;12.90;99.90
26336;DHT22;14047;50.936;4.654;2023-11-19T03:55:12;12.90;99.90
26336;DHT22;14047;50.936;4.654;2023-11-19T03:57:39;12.90;99.90
26336;DHT22;14047;50.936;4.654;2023-11-19T04:00:05;12.80;99.90
26336;DHT22;14047;50.936;4.654;2023-11-19T04:02:40;12.80;99.90
26336;DHT22;14047;50.936;4.654;2023-11-19T04:05:07;12.90;99.90
26336;DHT22;14047;50.936;4.654;2023-11-19T04:07:33;12.90;99.90
26336;DHT22;14047;50.936;4.654;2023-11-19T04:09:59;12.80;99.90
26336;DHT22;14047;50.936;4.654;2023-11-19T04:12:25;12.80;99.90
26336;DHT22;14047;50.936;4.654;2023-11-19T04:14:51;12.80;99.90
26336;DHT22;14047;50.936;4.654;2023-11-19T04:17:18;12.80;99.90
26336;DHT22;14047;50.936;4.654;2023-11-19T04:19:44;12.80;99.90
26336;DHT22;14047;50.936;4.654;2023-11-19T04:22:10;12.70;99.90
26336;DHT22;14047;50.936;4.654;2023-11-19T04:24:36;12.70;99.90
26336;DHT22;14047;50.936;4.654;2023-11-19T04:27:05;12.80;99.90
26336;DHT22;14047;50.936;4.654;2023-11-19T04:29:32;12.80;99.90
26336;DHT22;14047;50.936;4.654;2023-11-19T04:31:58;12.80;99.90
26336;DHT22;14047;50.936;4.654;2023-11-19T04:34:24;12.90;99.90
26336;DHT22;14047;50.936;4.654;2023-11-19T04:36:51;12.90;99.90
26336;DHT22;14047;50.936;4.654;2023-11-19T04:39:17;12.90;99.90
26336;DHT22;14047;50.936;4.654;2023-11-19T04:41:48;13.00;99.90
26336;DHT22;14047;50.936;4.654;2023-11-19T04:44:15;13.00;99.90
26336;DHT22;14047;50.936;4.654;2023-11-19T04:46:42;12.90;99.90
26336;DHT22;14047;50.936;4.654;2023-11-19T04:49:10;12.90;99.90
26336;DHT22;14047;50.936;4.654;2023-11-19T04:51:43;13.00;99.90
26336;DHT22;14047;50.936;4.654;2023-11-19T04:54:09;12.90;99.90
26336;DHT22;14047;50.936;4.654;2023-11-19T04:56:36;12.80;99.90
26336;DHT22;14047;50.936;4.654;2023-11-19T04:59:06;12.80;99.90
26336;DHT22;14047;50.936;4.654;2023-11-19T05:01:33;12.70;99.90
26336;DHT22;14047;50.936;4.654;2023-11-19T05:04:00;12.60;99.90
26336;DHT22;14047;50.936;4.654;2023-11-19T05:06:27;12.60;99.90
26336;DHT22;14047;50.936;4.654;2023-11-19T05:08:54;12.60;99.90
26336;DHT22;14047;50.936;4.654;2023-11-19T05:11:20;12.60;99.90
26336;DHT22;14047;50.936;4.654;2023-11-19T05:13:46;12.50;99.90
26336;DHT22;14047;50.936;4.654;2023-11-19T05:16:12;12.50;99.90
26336;DHT22;14047;50.936;4.654;2023-11-19T05:18:41;12.60;99.90
26336;DHT22;14047;50.936;4.654;2023-11-19T05:21:07;12.50;99.90
26336;DHT22;14047;50.936;4.654;2023-11-19T05:23:34;12.50;99.90
26336;DHT22;14047;50.936;4.654;2023-11-19T05:26:03;12.40;99.90
26336;DHT22;14047;50.936;4.654;2023-11-19T05:28:29;12.40;99.90
26336;DHT22;14047;50.936;4.654;2023-11-19T05:30:55;12.40;99.90
26336;DHT22;14047;50.936;4.654;2023-11-19T05:33:21;12.40;99.90
26336;DHT22;14047;50.936;4.654;2023-11-19T05:35:47;12.40;99.90
26336;DHT22;14047;50.936;4.654;2023-11-19T05:38:13;12.40;99.90
26336;DHT22;14047;50.936;4.654;2023-11-19T05:40:41;12.40;99.90
26336;DHT22;14047;50.936;4.654;2023-11-19T05:43:07;12.40;99.90
26336;DHT22;14047;50.936;4.654;2023-11-19T05:45:33;12.30;99.90
26336;DHT22;14047;50.936;4.654;2023-11-19T05:47:59;12.30;99.90
26336;DHT22;14047;50.936;4.654;2023-11-19T05:50:25;12.30;99.90
26336;DHT22;14047;50.936;4.654;2023-11-19T05:52:51;12.30;99.90
26336;DHT22;14047;50.936;4.654;2023-11-19T05:55:18;12.30;99.90
26336;DHT22;14047;50.936;4.654;2023-11-19T05:57:45;12.30;99.90
26336;DHT22;14047;50.936;4.654;2023-11-19T06:00:11;12.20;99.90
26336;DHT22;14047;50.936;4.654;2023-11-19T06:02:39;12.20;99.90
26336;DHT22;14047;50.936;4.654;2023-11-19T06:05:05;12.10;99.90
26336;DHT22;14047;50.936;4.654;2023-11-19T06:07:33;12.10;99.90
26336;DHT22;14047;50.936;4.654;2023-11-19T06:09:59;12.10;99.90
26336;DHT22;14047;50.936;4.654;2023-11-19T06:12:25;12.10;99.90
26336;DHT22;14047;50.936;4.654;2023-11-19T06:14:53;12.10;99.90
26336;DHT22;14047;50.936;4.654;2023-11-19T06:17:19;12.10;99.90
26336;DHT22;14047;50.936;4.654;2023-11-19T06:19:45;12.20;99.90
26336;DHT22;14047;50.936;4.654;2023-11-19T06:22:10;12.10;99.90
26336;DHT22;14047;50.936;4.654;2023-11-19T06:24:36;12.10;99.90
26336;DHT22;14047;50.936;4.654;2023-11-19T06:27:03;12.20;99.90
26336;DHT22;14047;50.936;4.654;2023-11-19T06:29:30;12.20;99.90
26336;DHT22;14047;50.936;4.654;2023-11-19T06:31:56;12.00;99.90
26336;DHT22;14047;50.936;4.654;2023-11-19T06:34:21;11.90;99.90
26336;DHT22;14047;50.936;4.654;2023-11-19T06:36:47;11.90;99.90
26336;DHT22;14047;50.936;4.654;2023-11-19T06:39:14;11.90;99.90
26336;DHT22;14047;50.936;4.654;2023-11-19T06:41:45;11.80;99.90
26336;DHT22;14047;50.936;4.654;2023-11-19T06:44:11;11.80;99.90
26336;DHT22;14047;50.936;4.654;2023-11-19T06:46:37;11.70;99.90
26336;DHT22;14047;50.936;4.654;2023-11-19T06:49:03;11.80;99.90
26336;DHT22;14047;50.936;4.654;2023-11-19T06:51:29;11.80;99.90
26336;DHT22;14047;50.936;4.654;2023-11-19T06:53:55;11.70;99.90
26336;DHT22;14047;50.936;4.654;2023-11-19T06:56:22;11.70;99.90
26336;DHT22;14047;50.936;4.654;2023-11-19T06:58:49;11.70;99.90
26336;DHT22;14047;50.936;4.654;2023-11-19T07:01:18;11.70;99.90
26336;DHT22;14047;50.936;4.654;2023-11-19T07:03:47;11.60;99.90
26336;DHT22;14047;50.936;4.654;2023-11-19T07:06:14;11.60;99.90
26336;DHT22;14047;50.936;4.654;2023-11-19T07:08:43;11.60;99.90
26336;DHT22;14047;50.936;4.654;2023-11-19T07:11:11;11.60;99.90
26336;DHT22;14047;50.936;4.654;2023-11-19T07:13:37;11.60;99.90
26336;DHT22;14047;50.936;4.654;2023-11-19T07:16:03;11.60;99.90
26336;DHT22;14047;50.936;4.654;2023-11-19T07:18:30;11.60;99.90
26336;DHT22;14047;50.936;4.654;2023-11-19T07:20:57;11.70;99.90
26336;DHT22;14047;50.936;4.654;2023-11-19T07:23:25;11.60;99.90
26336;DHT22;14047;50.936;4.654;2023-11-19T07:25:51;11.70;99.90
26336;DHT22;14047;50.936;4.654;2023-11-19T07:28:18;11.70;99.90
26336;DHT22;14047;50.936;4.654;2023-11-19T07:30:44;11.70;99.90
26336;DHT22;14047;50.936;4.654;2023-11-19T07:33:10;11.70;99.90
26336;DHT22;14047;50.936;4.654;2023-11-19T07:35:36;11.70;99.90
26336;DHT22;14047;50.936;4.654;2023-11-19T07:38:02;11.70;99.90
26336;DHT22;14047;50.936;4.654;2023-11-19T07:40:28;11.70;99.90
26336;DHT22;14047;50.936;4.654;2023-11-19T07:42:54;11.70;99.90
26336;DHT22;14047;50.936;4.654;2023-11-19T07:45:20;11.70;99.90
26336;DHT22;14047;50.936;4.654;2023-11-19T07:47:46;11.70;99.90
26336;DHT22;14047;50.936;4.654;2023-11-19T07:50:12;11.80;99.90
26336;DHT22;14047;50.936;4.654;2023-11-19T07:52:42;11.80;99.90
26336;DHT22;14047;50.936;4.654;2023-11-19T07:55:08;11.80;99.90
26336;DHT22;14047;50.936;4.654;2023-11-19T07:57:34;11.80;99.90
26336;DHT22;14047;50.936;4.654;2023-11-19T08:00:00;11.80;99.90
26336;DHT22;14047;50.936;4.654;2023-11-19T08:02:27;11.90;99.90
26336;DHT22;14047;50.936;4.654;2023-11-19T08:04:53;11.80;99.90
26336;DHT22;14047;50.936;4.654;2023-11-19T08:07:21;11.90;99.90
26336;DHT22;14047;50.936;4.654;2023-11-19T08:09:48;11.90;99.90
26336;DHT22;14047;50.936;4.654;2023-11-19T08:12:14;12.10;99.90
26336;DHT22;14047;50.936;4.654;2023-11-19T08:14:41;12.10;99.90
26336;DHT22;14047;50.936;4.654;2023-11-19T08:17:07;12.10;99.90
26336;DHT22;14047;50.936;4.654;2023-11-19T08:19:33;12.10;99.90
26336;DHT22;14047;50.936;4.654;2023-11-19T08:21:59;12.10;99.90
26336;DHT22;14047;50.936;4.654;2023-11-19T08:24:25;12.10;99.90
26336;DHT22;14047;50.936;4.654;2023-11-19T08:26:51;12.20;99.90
26336;DHT22;14047;50.936;4.654;2023-11-19T08:29:17;12.20;99.90
26336;DHT22;14047;50.936;4.654;2023-11-19T08:31:43;12.20;99.90
26336;DHT22;14047;50.936;4.654;2023-11-19T08:34:09;12.20;99.90
26336;DHT22;14047;50.936;4.654;2023-11-19T08:36:35;12.20;99.90
26336;DHT22;14047;50.936;4.654;2023-11-19T08:39:01;12.30;99.90
26336;DHT22;14047;50.936;4.654;2023-11-19T08:41:27;12.40;99.90
26336;DHT22;14047;50.936;4.654;2023-11-19T08:43:53;12.40;99.90
26336;DHT22;14047;50.936;4.654;2023-11-19T08:46:19;12.40;99.90
26336;DHT22;14047;50.936;4.654;2023-11-19T08:48:45;12.50;99.90
26336;DHT22;14047;50.936;4.654;2023-11-19T08:51:12;12.60;99.90
26336;DHT22;14047;50.936;4.654;2023-11-19T08:53:44;12.50;99.90
26336;DHT22;14047;50.936;4.654;2023-11-19T08:56:10;12.50;99.90
26336;DHT22;14047;50.936;4.654;2023-11-19T08:58:36;12.50;99.90
26336;DHT22;14047;50.936;4.654;2023-11-19T09:01:01;12.50;99.90
26336;DHT22;14047;50.936;4.654;2023-11-19T09:03:27;12.50;99.90
26336;DHT22;14047;50.936;4.654;2023-11-19T09:05:56;12.60;99.90
26336;DHT22;14047;50.936;4.654;2023-11-19T09:08:22;12.70;99.90
26336;DHT22;14047;50.936;4.654;2023-11-19T09:10:48;12.70;99.90
26336;DHT22;14047;50.936;4.654;2023-11-19T09:13:14;12.80;99.90
26336;DHT22;14047;50.936;4.654;2023-11-19T09:15:40;12.70;99.90
26336;DHT22;14047;50.936;4.654;2023-11-19T09:18:08;12.60;99.90
26336;DHT22;14047;50.936;4.654;2023-11-19T09:20:33;12.40;99.90
26336;DHT22;14047;50.936;4.654;2023-11-19T09:23:05;12.20;99.90
26336;DHT22;14047;50.936;4.654;2023-11-19T09:25:31;12.10;99.90
26336;DHT22;14047;50.936;4.654;2023-11-19T09:27:57;12.10;99.90
26336;DHT22;14047;50.936;4.654;2023-11-19T09:30:23;12.10;99.90
26336;DHT22;14047;50.936;4.654;2023-11-19T09:32:49;12.20;99.90
26336;DHT22;14047;50.936;4.654;2023-11-19T09:35:15;12.30;99.90
26336;DHT22;14047;50.936;4.654;2023-11-19T09:37:43;12.50;99.90
26336;DHT22;14047;50.936;4.654;2023-11-19T09:40:09;12.60;99.90
26336;DHT22;14047;50.936;4.654;2023-11-19T09:42:45;12.60;99.90
26336;DHT22;14047;50.936;4.654;2023-11-19T09:45:15;12.70;99.90
26336;DHT22;14047;50.936;4.654;2023-11-19T09:47:44;12.90;99.90
26336;DHT22;14047;50.936;4.654;2023-11-19T09:50:20;12.90;99.90
26336;DHT22;14047;50.936;4.654;2023-11-19T09:52:46;12.90;99.90
26336;DHT22;14047;50.936;4.654;2023-11-19T09:55:14;13.00;99.90
26336;DHT22;14047;50.936;4.654;2023-11-19T09:57:40;13.00;99.90
26336;DHT22;14047;50.936;4.654;2023-11-19T10:00:08;13.10;99.90
26336;DHT22;14047;50.936;4.654;2023-11-19T10:02:36;13.20;99.90
26336;DHT22;14047;50.936;4.654;2023-11-19T10:05:12;13.30;99.90
26336;DHT22;14047;50.936;4.654;2023-11-19T10:07:39;13.50;99.90
26336;DHT22;14047;50.936;4.654;2023-11-19T10:10:05;13.70;99.90
26336;DHT22;14047;50.936;4.654;2023-11-19T10:12:31;13.60;99.90
26336;DHT22;14047;50.936;4.654;2023-11-19T10:14:58;13.50;99.90
26336;DHT22;14047;50.936;4.654;2023-11-19T10:17:28;13.60;99.90
26336;DHT22;14047;50.936;4.654;2023-11-19T10:19:57;13.70;99.90
26336;DHT22;14047;50.936;4.654;2023-11-19T10:22:23;13.70;99.90
26336;DHT22;14047;50.936;4.654;2023-11-19T10:24:50;13.70;99.90
26336;DHT22;14047;50.936;4.654;2023-11-19T10:27:17;13.70;99.90
26336;DHT22;14047;50.936;4.654;2023-11-19T10:29:47;13.80;99.90
26336;DHT22;14047;50.936;4.654;2023-11-19T10:32:14;13.70;99.90
26336;DHT22;14047;50.936;4.654;2023-11-19T10:34:43;13.70;99.90
26336;DHT22;14047;50.936;4.654;2023-11-19T10:37:11;13.70;99.90
26336;DHT22;14047;50.936;4.654;2023-11-19T10:39:53;13.70;99.90
26336;DHT22;14047;50.936;4.654;2023-11-19T10:42:22;13.70;99.90
26336;DHT22;14047;50.936;4.654;2023-11-19T10:44:49;13.80;99.90
26336;DHT22;14047;50.936;4.654;2023-11-19T10:47:15;13.70;99.90
26336;DHT22;14047;50.936;4.654;2023-11-19T10:49:44;13.70;99.90
26336;DHT22;14047;50.936;4.654;2023-11-19T10:52:18;13.70;99.90
26336;DHT22;14047;50.936;4.654;2023-11-19T10:54:49;13.80;99.90
26336;DHT22;14047;50.936;4.654;2023-11-19T10:57:20;13.70;99.90
26336;DHT22;14047;50.936;4.654;2023-11-19T10:59:47;13.60;99.90
26336;DHT22;14047;50.936;4.654;2023-11-19T11:02:19;13.60;99.90
26336;DHT22;14047;50.936;4.654;2023-11-19T11:04:47;13.40;99.90
26336;DHT22;14047;50.936;4.654;2023-11-19T11:07:15;13.30;99.90
26336;DHT22;14047;50.936;4.654;2023-11-19T11:09:44;13.20;99.90
26336;DHT22;14047;50.936;4.654;2023-11-19T11:12:12;13.30;99.90
26336;DHT22;14047;50.936;4.654;2023-11-19T11:14:39;13.50;99.90
26336;DHT22;14047;50.936;4.654;2023-11-19T11:17:09;13.60;99.90
26336;DHT22;14047;50.936;4.654;2023-11-19T11:19:37;13.40;99.90
26336;DHT22;14047;50.936;4.654;2023-11-19T11:22:04;13.40;99.90
26336;DHT22;14047;50.936;4.654;2023-11-19T11:24:53;13.50;99.90
26336;DHT22;14047;50.936;4.654;2023-11-19T11:33:59;13.70;99.90
26336;DHT22;14047;50.936;4.654;2023-11-19T11:36:37;13.70;99.90
26336;DHT22;14047;50.936;4.654;2023-11-19T11:39:05;13.80;99.90
26336;DHT22;14047;50.936;4.654;2023-11-19T11:41:33;13.90;99.90
26336;DHT22;14047;50.936;4.654;2023-11-19T11:43:59;14.00;99.90
26336;DHT22;14047;50.936;4.654;2023-11-19T11:49:06;14.00;99.90
26336;DHT22;14047;50.936;4.654;2023-11-19T11:54:10;13.90;99.90
26336;DHT22;14047;50.936;4.654;2023-11-19T11:56:39;14.00;99.90
26336;DHT22;14047;50.936;4.654;2023-11-19T11:59:18;13.90;99.90
26336;DHT22;14047;50.936;4.654;2023-11-19T12:01:59;13.80;99.90
26336;DHT22;14047;50.936;4.654;2023-11-19T12:04:28;13.80;99.90
26336;DHT22;14047;50.936;4.654;2023-11-19T12:07:12;13.90;99.90
26336;DHT22;14047;50.936;4.654;2023-11-19T12:09:43;14.00;99.90
26336;DHT22;14047;50.936;4.654;2023-11-19T12:12:21;14.10;99.90
26336;DHT22;14047;50.936;4.654;2023-11-19T12:15:02;14.10;99.90
26336;DHT22;14047;50.936;4.654;2023-11-19T12:20:05;14.10;99.90
26336;DHT22;14047;50.936;4.654;2023-11-19T12:22:32;14.40;99.90
26336;DHT22;14047;50.936;4.654;2023-11-19T12:24:58;14.60;99.90
26336;DHT22;14047;50.936;4.654;2023-11-19T12:27:24;14.70;99.90
26336;DHT22;14047;50.936;4.654;2023-11-19T12:29:51;14.70;99.90
26336;DHT22;14047;50.936;4.654;2023-11-19T12:32:17;14.40;99.90
26336;DHT22;14047;50.936;4.654;2023-11-19T12:34:45;14.20;99.90
26336;DHT22;14047;50.936;4.654;2023-11-19T12:37:11;14.00;99.90
26336;DHT22;14047;50.936;4.654;2023-11-19T12:39:37;13.90;99.90
26336;DHT22;14047;50.936;4.654;2023-11-19T12:42:03;13.80;99.90
26336;DHT22;14047;50.936;4.654;2023-11-19T12:44:29;13.70;99.90
26336;DHT22;14047;50.936;4.654;2023-11-19T12:47:06;13.70;99.90
26336;DHT22;14047;50.936;4.654;2023-11-19T12:49:35;13.90;99.90
26336;DHT22;14047;50.936;4.654;2023-11-19T12:52:01;14.00;99.90
26336;DHT22;14047;50.936;4.654;2023-11-19T12:54:34;14.00;99.90
26336;DHT22;14047;50.936;4.654;2023-11-19T12:57:01;14.10;99.90
26336;DHT22;14047;50.936;4.654;2023-11-19T12:59:28;14.10;99.90
26336;DHT22;14047;50.936;4.654;2023-11-19T13:01:57;14.00;99.90
26336;DHT22;14047;50.936;4.654;2023-11-19T13:04:30;14.00;99.90
26336;DHT22;14047;50.936;4.654;2023-11-19T13:06:58;13.90;99.90
26336;DHT22;14047;50.936;4.654;2023-11-19T13:09:25;13.80;99.90
26336;DHT22;14047;50.936;4.654;2023-11-19T13:11:52;13.60;99.90
26336;DHT22;14047;50.936;4.654;2023-11-19T13:14:18;13.60;99.90
26336;DHT22;14047;50.936;4.654;2023-11-19T13:16:45;13.50;99.90
26336;DHT22;14047;50.936;4.654;2023-11-19T13:19:13;13.60;99.90
26336;DHT22;14047;50.936;4.654;2023-11-19T13:21:39;13.60;99.90
26336;DHT22;14047;50.936;4.654;2023-11-19T13:24:08;13.60;99.90
26336;DHT22;14047;50.936;4.654;2023-11-19T13:26:34;13.50;99.90
26336;DHT22;14047;50.936;4.654;2023-11-19T13:29:00;13.50;99.90
26336;DHT22;14047;50.936;4.654;2023-11-19T13:31:26;13.60;99.90
26336;DHT22;14047;50.936;4.654;2023-11-19T13:33:52;13.60;99.90
26336;DHT22;14047;50.936;4.654;2023-11-19T13:36:18;13.60;99.90
26336;DHT22;14047;50.936;4.654;2023-11-19T13:38:45;13.50;99.90
26336;DHT22;14047;50.936;4.654;2023-11-19T13:41:11;13.60;99.90
26336;DHT22;14047;50.936;4.654;2023-11-19T13:43:40;13.50;99.90
26336;DHT22;14047;50.936;4.654;2023-11-19T13:46:07;13.50;99.90
26336;DHT22;14047;50.936;4.654;2023-11-19T13:48:35;13.60;99.90
26336;DHT22;14047;50.936;4.654;2023-11-19T13:51:01;13.70;99.90
26336;DHT22;14047;50.936;4.654;2023-11-19T13:53:27;13.70;99.90
26336;DHT22;14047;50.936;4.654;2023-11-19T13:55:53;13.50;99.90
26336;DHT22;14047;50.936;4.654;2023-11-19T13:58:19;13.30;99.90
26336;DHT22;14047;50.936;4.654;2023-11-19T14:00:45;13.20;99.90
26336;DHT22;14047;50.936;4.654;2023-11-19T14:03:11;13.30;99.90
26336;DHT22;14047;50.936;4.654;2023-11-19T14:05:38;13.30;99.90
26336;DHT22;14047;50.936;4.654;2023-11-19T14:08:05;13.30;99.90
26336;DHT22;14047;50.936;4.654;2023-11-19T14:10:38;13.20;99.90
26336;DHT22;14047;50.936;4.654;2023-11-19T14:13:07;13.20;99.90
26336;DHT22;14047;50.936;4.654;2023-11-19T14:15:34;13.10;99.90
26336;DHT22;14047;50.936;4.654;2023-11-19T14:18:00;13.20;99.90
26336;DHT22;14047;50.936;4.654;2023-11-19T14:20:27;13.30;99.90
26336;DHT22;14047;50.936;4.654;2023-11-19T14:22:53;13.30;99.90
26336;DHT22;14047;50.936;4.654;2023-11-19T14:25:19;13.30;99.90
26336;DHT22;14047;50.936;4.654;2023-11-19T14:27:45;13.30;99.90
26336;DHT22;14047;50.936;4.654;2023-11-19T14:30:14;13.30;99.90
26336;DHT22;14047;50.936;4.654;2023-11-19T14:32:42;13.30;99.90
26336;DHT22;14047;50.936;4.654;2023-11-19T14:35:09;13.20;99.90
26336;DHT22;14047;50.936;4.654;2023-11-19T14:37:35;13.20;99.90
26336;DHT22;14047;50.936;4.654;2023-11-19T14:40:02;13.10;99.90
26336;DHT22;14047;50.936;4.654;2023-11-19T14:42:32;13.10;99.90
26336;DHT22;14047;50.936;4.654;2023-11-19T14:44:58;13.00;99.90
26336;DHT22;14047;50.936;4.654;2023-11-19T14:47:25;13.00;99.90
26336;DHT22;14047;50.936;4.654;2023-11-19T14:49:51;12.90;99.90
26336;DHT22;14047;50.936;4.654;2023-11-19T14:52:17;12.70;99.90
26336;DHT22;14047;50.936;4.654;2023-11-19T14:54:43;12.60;99.90
26336;DHT22;14047;50.936;4.654;2023-11-19T14:57:09;12.60;99.90
26336;DHT22;14047;50.936;4.654;2023-11-19T14:59:36;12.70;99.90
26336;DHT22;14047;50.936;4.654;2023-11-19T15:02:03;12.70;99.90
26336;DHT22;14047;50.936;4.654;2023-11-19T15:04:29;12.80;99.90
26336;DHT22;14047;50.936;4.654;2023-11-19T15:06:59;12.70;99.90
26336;DHT22;14047;50.936;4.654;2023-11-19T15:09:26;12.80;99.90
26336;DHT22;14047;50.936;4.654;2023-11-19T15:11:56;12.80;99.90
26336;DHT22;14047;50.936;4.654;2023-11-19T15:14:24;12.70;99.90
26336;DHT22;14047;50.936;4.654;2023-11-19T15:16:50;12.80;99.90
26336;DHT22;14047;50.936;4.654;2023-11-19T15:19:17;12.70;99.90
26336;DHT22;14047;50.936;4.654;2023-11-19T15:21:43;12.70;99.90
26336;DHT22;14047;50.936;4.654;2023-11-19T15:24:09;12.70;99.90
26336;DHT22;14047;50.936;4.654;2023-11-19T15:26:37;12.80;99.90
26336;DHT22;14047;50.936;4.654;2023-11-19T15:29:04;12.80;99.90
26336;DHT22;14047;50.936;4.654;2023-11-19T15:31:31;12.80;99.90
26336;DHT22;14047;50.936;4.654;2023-11-19T15:33:57;12.80;99.90
26336;DHT22;14047;50.936;4.654;2023-11-19T15:36:23;12.80;99.90
26336;DHT22;14047;50.936;4.654;2023-11-19T15:38:49;12.80;99.90
26336;DHT22;14047;50.936;4.654;2023-11-19T15:41:15;12.80;99.90
26336;DHT22;14047;50.936;4.654;2023-11-19T15:43:42;12.80;99.90
26336;DHT22;14047;50.936;4.654;2023-11-19T15:46:08;12.80;99.90